Time;durP1;ratioP1;P1;durP2;ratioP2;P2;SDS_P1;SDS_P2;PMS_P1;PMS_P2;Temp;Humidity;BMP_temperature;BMP_pressure;BME280_temperature;BME280_humidity;BME280_pressure;Samples;Min_cycle;Max_cycle;Signal;HPM_P1;HPM_P2
2024/04/07 00:01:12;;;;;;;0.70;0.60;;;16.00;75.90;;;;;;4956714;28;20129;-82
2024/04/07 00:03:39;;;;;;;0.50;0.50;;;16.00;76.00;;;;;;4956046;28;20562;-83
2024/04/07 00:06:05;;;;;;;0.60;0.50;;;16.00;76.10;;;;;;4953933;28;20043;-83
2024/04/07 00:08:33;;;;;;;0.73;0.63;;;16.00;76.20;;;;;;4955742;28;20054;-81
2024/04/07 00:11:01;;;;;;;1.48;0.60;;;16.00;76.30;;;;;;4939641;28;20047;-82
2024/04/07 00:13:27;;;;;;;0.98;0.90;;;16.00;76.40;;;;;;4964453;28;20045;-83
2024/04/07 00:15:53;;;;;;;0.70;0.70;;;15.90;76.50;;;;;;5024263;28;20383;-83
2024/04/07 00:18:19;;;;;;;0.70;0.70;;;16.00;76.50;;;;;;5078553;28;20047;-83
2024/04/07 00:20:44;;;;;;;1.00;0.90;;;15.90;76.30;;;;;;5061325;28;20035;-83
2024/04/07 00:23:11;;;;;;;0.93;0.90;;;16.00;76.40;;;;;;5061608;28;20389;-83
2024/04/07 00:25:36;;;;;;;1.63;1.00;;;16.00;76.30;;;;;;5078182;28;20038;-83
2024/04/07 00:28:02;;;;;;;1.05;0.70;;;16.10;76.30;;;;;;5061919;28;20048;-81
2024/04/07 00:30:28;;;;;;;0.80;0.70;;;16.10;76.30;;;;;;5078487;28;20043;-82
2024/04/07 00:32:54;;;;;;;0.60;0.60;;;16.00;76.40;;;;;;5094918;28;20044;-82
2024/04/07 00:35:19;;;;;;;0.60;0.55;;;16.00;76.50;;;;;;5061380;28;20415;-82
2024/04/07 00:37:46;;;;;;;0.65;0.60;;;15.90;76.60;;;;;;5078051;28;20047;-82
2024/04/07 00:40:12;;;;;;;0.95;0.70;;;15.90;76.70;;;;;;5036947;28;20048;-82
2024/04/07 00:42:37;;;;;;;1.17;0.80;;;15.90;76.80;;;;;;5020715;28;20041;-82
2024/04/07 00:45:04;;;;;;;0.95;0.80;;;16.00;76.80;;;;;;5037563;28;20045;-82
2024/04/07 00:47:37;;;;;;;0.75;0.75;;;16.00;76.80;;;;;;5020422;28;20402;-83
2024/04/07 00:50:06;;;;;;;1.13;0.80;;;16.00;76.80;;;;;;5020206;28;20061;-82
2024/04/07 00:52:31;;;;;;;1.25;0.77;;;16.00;76.80;;;;;;5036319;28;20050;-81
2024/04/07 00:54:57;;;;;;;1.10;0.70;;;15.90;76.80;;;;;;5036537;28;20078;-82
2024/04/07 00:57:24;;;;;;;1.20;0.80;;;16.00;76.90;;;;;;5053663;28;20056;-82
2024/04/07 00:59:51;;;;;;;0.75;0.70;;;16.00;76.80;;;;;;5036649;28;20450;-83
2024/04/07 01:02:17;;;;;;;0.70;0.70;;;16.00;76.90;;;;;;5020456;28;20171;-83
2024/04/07 01:04:43;;;;;;;0.60;0.60;;;16.00;77.00;;;;;;5036910;28;20131;-82
2024/04/07 01:07:09;;;;;;;1.65;0.98;;;16.00;77.00;;;;;;5054024;28;20454;-82
2024/04/07 01:09:35;;;;;;;0.80;0.63;;;16.10;77.10;;;;;;5053864;28;20044;-83
2024/04/07 01:12:13;;;;;;;0.65;0.60;;;16.00;77.00;;;;;;5055043;28;20057;-83
2024/04/07 01:14:39;;;;;;;0.70;0.70;;;16.00;76.90;;;;;;5061389;28;20039;-83
2024/04/07 01:17:06;;;;;;;0.80;0.80;;;16.10;77.00;;;;;;5077723;28;20408;-82
2024/04/07 01:19:32;;;;;;;1.13;0.60;;;16.10;76.80;;;;;;5061098;28;20075;-83
2024/04/07 01:21:58;;;;;;;0.80;0.73;;;16.00;76.70;;;;;;5112522;28;20096;-83
2024/04/07 01:24:24;;;;;;;0.80;0.80;;;16.10;76.80;;;;;;5094312;28;20047;-82
2024/04/07 01:26:49;;;;;;;1.23;0.82;;;16.10;76.80;;;;;;5060689;28;20138;-83
2024/04/07 01:29:16;;;;;;;0.88;0.88;;;16.10;76.80;;;;;;5094520;28;20047;-84
2024/04/07 01:31:42;;;;;;;0.93;0.80;;;16.30;76.50;;;;;;5077693;28;20031;-84
2024/04/07 01:34:07;;;;;;;1.08;0.90;;;16.30;76.40;;;;;;5078117;28;20112;-81
2024/04/07 01:36:34;;;;;;;2.15;0.80;;;16.30;76.20;;;;;;5077298;28;20036;-83
2024/04/07 01:39:00;;;;;;;2.50;1.05;;;16.40;76.10;;;;;;5062516;28;20048;-83
2024/04/07 01:41:26;;;;;;;2.40;0.80;;;16.50;76.00;;;;;;5076989;28;20104;-82
2024/04/07 01:43:51;;;;;;;1.85;0.85;;;16.60;75.80;;;;;;5112886;28;20047;-81
2024/04/07 01:46:17;;;;;;;1.80;0.80;;;16.60;75.50;;;;;;5093999;28;20036;-83
2024/04/07 01:48:43;;;;;;;1.10;0.82;;;16.70;75.50;;;;;;5112750;28;20051;-80
2024/04/07 01:51:08;;;;;;;1.15;0.60;;;16.60;75.40;;;;;;5112291;28;20088;-82
2024/04/07 01:53:34;;;;;;;1.05;0.60;;;16.60;75.30;;;;;;5060731;28;20035;-84
2024/04/07 01:56:00;;;;;;;0.82;0.73;;;16.70;75.30;;;;;;5093651;28;20040;-83
2024/04/07 01:58:26;;;;;;;1.48;0.70;;;16.70;75.30;;;;;;5094349;28;20587;-80
2024/04/07 02:00:52;;;;;;;1.52;0.77;;;16.60;75.30;;;;;;5094330;28;20393;-82
2024/04/07 02:03:22;;;;;;;0.82;0.65;;;16.60;75.50;;;;;;5060402;28;20138;-80
2024/04/07 02:05:48;;;;;;;2.03;0.60;;;16.60;75.60;;;;;;5079842;28;20122;-82
2024/04/07 02:08:16;;;;;;;0.60;0.60;;;16.50;75.70;;;;;;5064102;28;20576;-81
2024/04/07 02:10:50;;;;;;;0.80;0.63;;;16.60;75.80;;;;;;5056747;28;20036;-82
2024/04/07 02:13:16;;;;;;;1.08;0.50;;;16.50;75.90;;;;;;5022817;28;20097;-82
2024/04/07 02:15:43;;;;;;;0.55;0.47;;;16.40;76.00;;;;;;5022646;28;20044;-79
2024/04/07 02:18:09;;;;;;;0.70;0.60;;;16.40;76.10;;;;;;5022815;28;20523;-81
2024/04/07 02:20:37;;;;;;;1.88;0.50;;;16.30;76.20;;;;;;5022254;28;20151;-82
2024/04/07 02:23:04;;;;;;;0.75;0.40;;;16.30;76.30;;;;;;5023244;28;20053;-82
2024/04/07 02:25:30;;;;;;;1.73;0.60;;;16.30;76.50;;;;;;5055857;28;20564;-82
2024/04/07 02:27:56;;;;;;;0.70;0.50;;;16.30;76.50;;;;;;5022588;28;20064;-82
2024/04/07 02:30:21;;;;;;;0.40;0.40;;;16.20;76.50;;;;;;5022495;28;20050;-82
2024/04/07 02:32:47;;;;;;;0.52;0.50;;;16.20;76.60;;;;;;5022616;28;20056;-82
2024/04/07 02:35:14;;;;;;;1.27;0.70;;;16.20;76.70;;;;;;5041595;28;20055;-81
2024/04/07 02:37:47;;;;;;;0.77;0.55;;;16.20;76.80;;;;;;5097603;28;20492;-81
2024/04/07 02:40:13;;;;;;;0.47;0.47;;;16.10;76.90;;;;;;5063857;28;20419;-81
2024/04/07 02:42:38;;;;;;;0.82;0.50;;;16.10;77.00;;;;;;5080084;28;20396;-81
2024/04/07 02:50:20;;;;;;;0.50;0.40;;;16.00;77.20;;;;;;5099035;28;20054;-82
2024/04/07 02:52:46;;;;;;;0.45;0.40;;;16.00;77.20;;;;;;5080596;28;20031;-81
2024/04/07 02:55:12;;;;;;;2.35;0.65;;;15.90;77.30;;;;;;5096649;28;20115;-83
2024/04/07 02:57:38;;;;;;;0.57;0.45;;;16.00;77.30;;;;;;5097200;28;20457;-80
2024/04/07 03:00:04;;;;;;;0.20;0.20;;;15.90;77.30;;;;;;5079350;28;20058;-81
2024/04/07 03:02:32;;;;;;;0.95;0.40;;;15.90;77.40;;;;;;5096636;28;20040;-80
2024/04/07 03:04:58;;;;;;;1.05;0.60;;;15.90;77.50;;;;;;5096945;28;20043;-82
2024/04/07 03:07:24;;;;;;;1.05;0.50;;;15.80;77.40;;;;;;5080085;28;20039;-82
2024/04/07 03:09:54;;;;;;;0.82;0.50;;;15.80;77.40;;;;;;5063414;28;20437;-82
2024/04/07 03:12:20;;;;;;;0.73;0.30;;;15.80;77.50;;;;;;5080075;28;20045;-81
2024/04/07 03:14:51;;;;;;;0.30;0.30;;;15.80;77.50;;;;;;5080209;28;20118;-83
2024/04/07 03:17:17;;;;;;;;;;;15.80;77.40;;;;;;5097040;28;20480;-82
2024/04/07 03:19:42;;;;;;;0.95;0.40;;;15.80;77.40;;;;;;5096398;28;19964;-82
2024/04/07 03:22:08;;;;;;;0.30;0.30;;;15.70;77.30;;;;;;5115300;28;20051;-81
2024/04/07 03:24:33;;;;;;;0.40;0.40;;;15.70;77.30;;;;;;5062578;28;20034;-81
2024/04/07 03:27:00;;;;;;;0.28;0.28;;;15.80;77.30;;;;;;5079701;28;20481;-83
2024/04/07 03:29:26;;;;;;;0.85;0.40;;;15.70;77.20;;;;;;5063147;28;20039;-83
2024/04/07 03:31:51;;;;;;;0.50;0.30;;;15.70;77.20;;;;;;5062707;28;20044;-81
2024/04/07 03:34:24;;;;;;;0.43;0.43;;;15.70;77.20;;;;;;5079884;28;20507;-82
2024/04/07 03:36:53;;;;;;;1.35;0.45;;;15.70;77.20;;;;;;5063081;28;20062;-84
2024/04/07 03:39:19;;;;;;;0.50;0.45;;;15.70;77.10;;;;;;5079620;28;20373;-83
2024/04/07 03:41:47;;;;;;;0.30;0.30;;;15.80;77.00;;;;;;5060996;28;20032;-83
2024/04/07 03:44:15;;;;;;;0.40;0.40;;;15.80;76.80;;;;;;5096337;28;20032;-83
2024/04/07 03:46:41;;;;;;;1.20;0.40;;;15.80;76.70;;;;;;5095863;28;20066;-83
2024/04/07 03:49:07;;;;;;;0.75;0.40;;;15.70;76.60;;;;;;5096379;28;20059;-84
2024/04/07 03:51:33;;;;;;;0.30;0.30;;;15.80;76.70;;;;;;5079655;28;20067;-83
2024/04/07 03:54:00;;;;;;;1.27;0.40;;;15.80;76.70;;;;;;5099410;28;20437;-84
2024/04/07 03:56:27;;;;;;;0.57;0.20;;;15.80;76.60;;;;;;5063253;28;20029;-86
2024/04/07 03:58:53;;;;;;;0.65;0.38;;;15.80;76.40;;;;;;5077788;28;20078;-86
2024/04/07 04:01:19;;;;;;;0.30;0.30;;;15.90;76.30;;;;;;5040386;28;20059;-83
2024/04/07 04:03:50;;;;;;;0.40;0.38;;;15.90;76.20;;;;;;5058419;28;20059;-85
2024/04/07 04:06:15;;;;;;;0.65;0.45;;;15.90;76.00;;;;;;5056862;28;20118;-83
2024/04/07 04:08:41;;;;;;;0.25;0.25;;;16.00;75.90;;;;;;5040811;28;20533;-84
2024/04/07 04:11:10;;;;;;;1.33;0.40;;;16.00;75.80;;;;;;5021662;28;20496;-85
2024/04/07 04:13:36;;;;;;;0.40;0.38;;;16.00;75.70;;;;;;5055315;28;20059;-83
2024/04/07 04:16:02;;;;;;;0.35;0.35;;;16.00;75.60;;;;;;5039745;28;20439;-84
2024/04/07 04:18:27;;;;;;;0.30;0.30;;;16.00;75.50;;;;;;5058492;28;20055;-84
2024/04/07 04:20:54;;;;;;;1.17;0.40;;;16.10;75.40;;;;;;5024088;28;20036;-83
2024/04/07 04:23:19;;;;;;;0.30;0.30;;;16.00;75.30;;;;;;5074699;28;20044;-83
2024/04/07 04:25:53;;;;;;;0.35;0.35;;;16.20;75.30;;;;;;5023653;28;20037;-85
2024/04/07 04:28:22;;;;;;;0.47;0.30;;;16.10;75.10;;;;;;5021517;28;20135;-83
2024/04/07 04:30:54;;;;;;;0.45;0.20;;;16.10;75.00;;;;;;5056068;28;20044;-80
2024/04/07 04:33:27;;;;;;;0.38;0.30;;;16.10;74.80;;;;;;5074353;28;20119;-83
2024/04/07 04:35:54;;;;;;;0.40;0.40;;;16.20;74.70;;;;;;5039385;28;20044;-85
2024/04/07 04:38:21;;;;;;;0.65;0.30;;;16.10;74.60;;;;;;5055243;28;20047;-82
2024/04/07 04:40:55;;;;;;;0.38;0.38;;;16.10;74.50;;;;;;5069639;28;20066;-83
2024/04/07 04:43:25;;;;;;;0.40;0.40;;;16.10;74.40;;;;;;5097429;28;20085;-85
2024/04/07 04:46:08;;;;;;;0.40;0.40;;;16.20;74.30;;;;;;5101493;28;20505;-83
2024/04/07 04:48:37;;;;;;;0.25;0.25;;;16.10;74.20;;;;;;5117988;28;20040;-84
2024/04/07 04:51:04;;;;;;;0.30;0.30;;;16.20;74.20;;;;;;5098433;28;20042;-82
2024/04/07 04:53:31;;;;;;;0.20;0.20;;;16.10;74.20;;;;;;5082226;28;20067;-83
2024/04/07 04:56:01;;;;;;;0.55;0.30;;;16.10;74.10;;;;;;5097751;28;20122;-83
2024/04/07 04:58:30;;;;;;;0.20;0.20;;;16.10;74.00;;;;;;5056268;28;20037;-83
2024/04/07 05:00:56;;;;;;;0.20;0.20;;;16.10;74.00;;;;;;5055548;28;20079;-83
2024/04/07 05:03:22;;;;;;;0.30;0.20;;;16.00;73.90;;;;;;5038926;28;20051;-84
2024/04/07 05:05:47;;;;;;;0.80;0.20;;;16.30;74.10;;;;;;5056508;28;20056;-84
2024/04/07 05:08:14;;;;;;;0.28;0.28;;;16.20;73.70;;;;;;5055252;28;20130;-83
2024/04/07 05:10:40;;;;;;;0.20;0.20;;;16.10;73.60;;;;;;5055950;28;20082;-83
2024/04/07 05:13:09;;;;;;;0.20;0.20;;;16.10;73.60;;;;;;5036682;28;20063;-82
2024/04/07 05:15:34;;;;;;;0.30;0.22;;;16.10;73.50;;;;;;5053812;28;20052;-83
2024/04/07 05:18:00;;;;;;;0.28;0.20;;;16.10;73.50;;;;;;5036707;28;20405;-84
2024/04/07 05:20:26;;;;;;;0.20;0.20;;;16.10;73.50;;;;;;5070737;28;20044;-83
2024/04/07 05:22:52;;;;;;;0.30;0.30;;;16.00;73.60;;;;;;5053462;28;20041;-84
2024/04/07 05:25:18;;;;;;;1.08;0.30;;;16.00;73.70;;;;;;5070586;28;20055;-83
2024/04/07 05:27:44;;;;;;;0.20;0.20;;;15.90;73.70;;;;;;5053936;28;20090;-85
2024/04/07 05:30:10;;;;;;;0.30;0.20;;;15.90;73.70;;;;;;5036574;28;20510;-83
2024/04/07 05:32:36;;;;;;;0.80;0.20;;;15.90;73.70;;;;;;5036434;28;20055;-83
2024/04/07 05:35:04;;;;;;;1.02;0.30;;;15.90;73.60;;;;;;5036997;28;20036;-84
2024/04/07 05:37:31;;;;;;;0.30;0.30;;;16.00;73.80;;;;;;5036920;28;20141;-83
2024/04/07 05:39:57;;;;;;;1.67;0.22;;;15.90;73.80;;;;;;5054512;28;20143;-84
2024/04/07 05:42:31;;;;;;;0.40;0.38;;;15.80;73.70;;;;;;5023021;28;20127;-86
2024/04/07 05:45:22;;;;;;;0.28;0.28;;;15.90;73.80;;;;;;5023324;28;20148;-84
2024/04/07 05:47:57;;;;;;;0.25;0.20;;;15.90;73.80;;;;;;5030141;28;20037;-83
2024/04/07 05:50:50;;;;;;;0.22;0.20;;;15.90;73.70;;;;;;5040229;28;20041;-84
2024/04/07 05:53:55;;;;;;;0.20;0.20;;;15.90;73.70;;;;;;5032381;28;20061;-82
2024/04/07 05:56:23;;;;;;;0.63;0.30;;;15.90;73.70;;;;;;4995560;28;20041;-84
2024/04/07 05:59:15;;;;;;;0.40;0.30;;;15.80;73.60;;;;;;4959439;28;20448;-83
2024/04/07 06:01:43;;;;;;;0.20;0.20;;;16.00;73.80;;;;;;4941430;29;20051;-84
2024/04/07 06:04:12;;;;;;;0.25;0.20;;;15.90;73.70;;;;;;4917210;29;20079;-84
2024/04/07 06:06:38;;;;;;;0.82;0.32;;;15.80;73.80;;;;;;4919554;29;20399;-84
2024/04/07 06:09:15;;;;;;;0.20;0.20;;;15.80;73.90;;;;;;4863023;29;20052;-83
2024/04/07 06:11:44;;;;;;;0.20;0.20;;;15.80;74.00;;;;;;4877227;29;20037;-83
2024/04/07 06:14:09;;;;;;;0.32;0.30;;;15.70;74.00;;;;;;4866965;29;20534;-83
2024/04/07 06:16:52;;;;;;;0.20;0.20;;;15.90;74.20;;;;;;4879327;29;20053;-82
2024/04/07 06:19:17;;;;;;;0.20;0.20;;;15.80;74.20;;;;;;4876395;29;20081;-83
2024/04/07 06:21:44;;;;;;;0.43;0.20;;;15.70;74.10;;;;;;4863355;29;20051;-84
2024/04/07 06:24:09;;;;;;;0.32;0.20;;;15.70;74.10;;;;;;4887253;29;20091;-83
2024/04/07 06:26:35;;;;;;;0.22;0.20;;;15.80;74.10;;;;;;4869515;29;20131;-85
2024/04/07 06:29:01;;;;;;;0.50;0.40;;;15.80;74.00;;;;;;4892175;29;20082;-83
2024/04/07 06:31:26;;;;;;;0.57;0.40;;;15.70;74.00;;;;;;4954630;29;20086;-83
2024/04/07 06:33:52;;;;;;;0.20;0.20;;;15.80;74.10;;;;;;4922324;29;20091;-85
2024/04/07 06:36:19;;;;;;;0.47;0.30;;;15.70;74.10;;;;;;4938476;29;20498;-84
2024/04/07 06:38:45;;;;;;;0.30;0.30;;;15.70;74.20;;;;;;4982045;28;20041;-83
2024/04/07 06:41:11;;;;;;;0.40;0.30;;;15.70;74.20;;;;;;5079443;28;20047;-81
2024/04/07 06:43:37;;;;;;;1.13;0.30;;;15.70;74.30;;;;;;5082440;28;20052;-82
2024/04/07 06:46:03;;;;;;;0.98;0.35;;;15.70;74.30;;;;;;5099724;28;20051;-83
2024/04/07 06:48:29;;;;;;;0.30;0.30;;;15.70;74.20;;;;;;5082290;28;20048;-79
2024/04/07 06:50:55;;;;;;;1.35;0.50;;;15.80;74.30;;;;;;5097882;28;20044;-79
2024/04/07 06:53:22;;;;;;;0.55;0.30;;;15.70;74.20;;;;;;5117431;28;20044;-80
2024/04/07 06:55:47;;;;;;;0.60;0.30;;;15.80;74.30;;;;;;5101206;28;20031;-79
2024/04/07 06:58:13;;;;;;;0.30;0.20;;;15.70;74.20;;;;;;5111862;28;20120;-79
2024/04/07 07:00:40;;;;;;;0.32;0.25;;;15.70;74.30;;;;;;5098962;28;20473;-80
2024/04/07 07:03:06;;;;;;;0.20;0.20;;;15.80;74.40;;;;;;5099648;28;20055;-79
2024/04/07 07:05:31;;;;;;;0.35;0.30;;;15.70;74.60;;;;;;5114459;28;20472;-79
2024/04/07 07:07:57;;;;;;;0.30;0.30;;;15.70;74.60;;;;;;5075097;28;20040;-78
2024/04/07 07:10:23;;;;;;;0.38;0.30;;;15.70;74.60;;;;;;5130946;28;20089;-79
2024/04/07 07:12:49;;;;;;;0.20;0.20;;;15.70;74.40;;;;;;5111419;28;20047;-79
2024/04/07 07:15:15;;;;;;;0.30;0.30;;;15.80;74.40;;;;;;5112374;28;20047;-78
2024/04/07 07:17:40;;;;;;;0.20;0.20;;;15.80;74.30;;;;;;5109879;28;20485;-79
2024/04/07 07:20:06;;;;;;;0.60;0.28;;;15.80;74.20;;;;;;5127293;28;20040;-80
2024/04/07 07:22:32;;;;;;;0.20;0.20;;;15.90;74.10;;;;;;5103009;28;20032;-79
2024/04/07 07:24:59;;;;;;;0.40;0.30;;;15.90;74.20;;;;;;5109222;28;20063;-80
2024/04/07 07:27:25;;;;;;;0.50;0.35;;;15.80;74.10;;;;;;5093799;28;20036;-80
2024/04/07 07:29:50;;;;;;;1.00;0.30;;;15.80;74.10;;;;;;5106439;28;20071;-80
2024/04/07 07:32:17;;;;;;;0.45;0.40;;;15.80;74.10;;;;;;5074875;28;20420;-80
2024/04/07 07:34:43;;;;;;;0.20;0.20;;;15.80;74.10;;;;;;5124104;28;20055;-80
2024/04/07 07:37:09;;;;;;;0.40;0.40;;;15.90;74.80;;;;;;5120741;28;20035;-80
2024/04/07 07:39:34;;;;;;;0.60;0.30;;;15.90;74.20;;;;;;5102786;28;20043;-81
2024/04/07 07:42:00;;;;;;;0.65;0.38;;;15.90;74.20;;;;;;5089089;28;20054;-81
2024/04/07 07:44:26;;;;;;;1.02;0.32;;;15.90;74.30;;;;;;5075821;28;20050;-80
2024/04/07 07:46:52;;;;;;;0.65;0.30;;;15.90;74.30;;;;;;5075968;28;20067;-80
2024/04/07 07:49:18;;;;;;;0.73;0.40;;;16.00;74.50;;;;;;5126596;28;20040;-79
2024/04/07 07:51:44;;;;;;;0.28;0.28;;;15.90;74.50;;;;;;5130102;28;20039;-80
2024/04/07 07:54:09;;;;;;;0.43;0.20;;;15.90;74.40;;;;;;5096719;28;20108;-81
2024/04/07 07:56:35;;;;;;;0.57;0.50;;;16.00;74.40;;;;;;5091222;28;20532;-84
2024/04/07 07:59:01;;;;;;;0.40;0.30;;;16.10;74.20;;;;;;5098885;28;20053;-83
2024/04/07 08:01:27;;;;;;;0.35;0.30;;;16.20;74.00;;;;;;5128707;28;20143;-81
2024/04/07 08:03:52;;;;;;;1.65;0.52;;;16.40;73.70;;;;;;5097086;28;20106;-81
2024/04/07 08:06:19;;;;;;;0.40;0.35;;;16.50;73.50;;;;;;5124733;28;20490;-81
2024/04/07 08:08:44;;;;;;;0.52;0.40;;;16.60;73.20;;;;;;5110789;28;20039;-80
2024/04/07 08:11:10;;;;;;;0.30;0.30;;;16.70;73.00;;;;;;5108200;28;20429;-81
2024/04/07 08:13:36;;;;;;;0.70;0.50;;;16.90;72.90;;;;;;5076375;28;20039;-81
2024/04/07 08:16:02;;;;;;;0.50;0.47;;;17.00;72.70;;;;;;5099832;28;20083;-82
2024/04/07 08:18:30;;;;;;;2.38;0.60;;;17.20;72.70;;;;;;5127051;28;20493;-82
2024/04/07 08:21:04;;;;;;;0.55;0.38;;;17.30;72.50;;;;;;5104446;28;20048;-80
2024/04/07 08:23:33;;;;;;;0.57;0.50;;;17.20;72.50;;;;;;5082038;28;20393;-81
2024/04/07 08:25:59;;;;;;;0.57;0.38;;;17.30;72.60;;;;;;5088041;28;20122;-78
2024/04/07 08:28:25;;;;;;;0.77;0.40;;;17.40;72.60;;;;;;5129337;28;20047;-76
2024/04/07 08:30:51;;;;;;;1.23;0.55;;;17.40;72.50;;;;;;5128673;28;20501;-77
2024/04/07 08:33:17;;;;;;;0.40;0.40;;;17.50;72.40;;;;;;5134179;28;20061;-77
2024/04/07 08:35:45;;;;;;;0.93;0.60;;;17.60;72.40;;;;;;5130914;28;20039;-78
2024/04/07 08:38:11;;;;;;;0.82;0.50;;;17.70;72.20;;;;;;5108946;28;20051;-79
2024/04/07 08:40:41;;;;;;;0.50;0.45;;;17.70;72.20;;;;;;5083815;28;20089;-78
2024/04/07 08:43:07;;;;;;;2.08;0.50;;;17.70;72.30;;;;;;5130448;28;20042;-78
2024/04/07 08:45:34;;;;;;;0.50;0.50;;;17.80;72.60;;;;;;5115932;28;20028;-77
2024/04/07 08:48:01;;;;;;;1.10;0.55;;;17.90;72.50;;;;;;5113575;28;20027;-78
2024/04/07 08:50:27;;;;;;;0.98;0.52;;;18.10;72.40;;;;;;5111357;28;20084;-78
2024/04/07 08:52:57;;;;;;;0.63;0.38;;;18.10;72.10;;;;;;5080608;28;20051;-78
2024/04/07 08:55:23;;;;;;;2.08;0.60;;;18.20;72.20;;;;;;5095328;28;20102;-78
2024/04/07 08:57:50;;;;;;;0.68;0.40;;;18.20;72.10;;;;;;5134845;28;20043;-78
2024/04/07 09:00:16;;;;;;;1.73;0.80;;;18.20;72.10;;;;;;5116042;28;20027;-78
2024/04/07 09:02:42;;;;;;;1.85;0.90;;;18.20;72.00;;;;;;5113095;28;20489;-78
2024/04/07 09:05:08;;;;;;;2.33;0.85;;;18.20;72.00;;;;;;5130034;28;20043;-78
2024/04/07 09:07:34;;;;;;;1.20;0.70;;;18.30;72.10;;;;;;5129571;28;20040;-77
2024/04/07 09:10:00;;;;;;;1.55;0.65;;;18.40;72.00;;;;;;5112179;28;20106;-79
2024/04/07 09:12:59;;;;;;;2.50;0.65;;;18.50;71.90;;;;;;5110141;28;20401;-80
2024/04/07 09:15:44;;;;;;;1.30;0.60;;;18.60;71.90;;;;;;5062042;28;20138;-77
2024/04/07 09:18:20;;;;;;;1.00;0.50;;;18.60;71.80;;;;;;5096363;28;20047;-77
2024/04/07 09:20:59;;;;;;;0.63;0.60;;;18.60;71.70;;;;;;5037203;28;20162;-77
2024/04/07 09:23:25;;;;;;;0.40;0.40;;;18.60;71.90;;;;;;4992662;28;20419;-78
2024/04/07 09:25:53;;;;;;;0.50;0.50;;;18.50;72.20;;;;;;4994947;28;20053;-79
2024/04/07 09:28:19;;;;;;;0.57;0.50;;;18.40;72.40;;;;;;4995160;28;20033;-80
2024/04/07 09:30:45;;;;;;;0.43;0.43;;;18.30;72.50;;;;;;4977563;28;20526;-80
2024/04/07 09:33:13;;;;;;;1.08;0.63;;;18.40;72.80;;;;;;4997126;28;20044;-83
2024/04/07 09:35:41;;;;;;;1.23;0.30;;;18.50;73.00;;;;;;4998109;28;20086;-81
2024/04/07 09:38:07;;;;;;;1.25;0.50;;;18.40;72.90;;;;;;5006037;28;20519;-80
2024/04/07 09:40:34;;;;;;;1.08;0.60;;;18.60;72.60;;;;;;5020347;28;20137;-82
2024/04/07 09:43:00;;;;;;;1.08;0.47;;;18.60;72.40;;;;;;4999914;28;20045;-82
2024/04/07 09:45:26;;;;;;;0.43;0.40;;;18.70;72.40;;;;;;4999948;28;20025;-82
2024/04/07 09:47:58;;;;;;;0.45;0.40;;;18.70;72.30;;;;;;5000000;28;20117;-80
2024/04/07 09:50:37;;;;;;;0.90;0.40;;;18.70;72.40;;;;;;4997931;28;20042;-81
2024/04/07 09:53:12;;;;;;;1.02;0.40;;;18.60;72.50;;;;;;5034822;28;20088;-81
2024/04/07 09:55:42;;;;;;;0.50;0.40;;;18.60;72.70;;;;;;5096615;28;20508;-81
2024/04/07 09:58:09;;;;;;;0.55;0.40;;;18.60;72.70;;;;;;5061739;28;20039;-81
2024/04/07 10:00:36;;;;;;;0.88;0.40;;;18.50;72.80;;;;;;5072429;28;20050;-80
2024/04/07 10:03:04;;;;;;;1.40;0.55;;;18.60;72.80;;;;;;5071572;28;20052;-82
2024/04/07 10:05:30;;;;;;;0.50;0.40;;;18.50;72.70;;;;;;5089895;28;20046;-82
2024/04/07 10:07:57;;;;;;;0.57;0.40;;;18.50;72.60;;;;;;5085869;28;20067;-80
2024/04/07 10:10:25;;;;;;;0.40;0.40;;;18.70;72.70;;;;;;5110190;28;20040;-82
2024/04/07 10:12:53;;;;;;;0.47;0.30;;;18.60;72.50;;;;;;5103362;28;20024;-81
2024/04/07 10:15:20;;;;;;;0.77;0.57;;;18.60;72.40;;;;;;5112002;28;20023;-81
2024/04/07 10:17:48;;;;;;;0.40;0.40;;;18.60;72.40;;;;;;5133561;28;20056;-82
2024/04/07 10:20:14;;;;;;;1.63;0.52;;;18.70;72.40;;;;;;5069895;27;20058;-81
2024/04/07 10:22:43;;;;;;;1.10;0.60;;;18.70;72.40;;;;;;5086764;28;20051;-81
2024/04/07 10:25:10;;;;;;;0.52;0.50;;;18.70;72.30;;;;;;5085934;28;20035;-81
2024/04/07 10:27:44;;;;;;;0.40;0.40;;;18.80;72.30;;;;;;5110310;28;20039;-82
2024/04/07 10:30:12;;;;;;;0.90;0.32;;;18.90;72.00;;;;;;5115427;28;20020;-82
2024/04/07 10:32:40;;;;;;;0.50;0.40;;;19.00;71.90;;;;;;5108964;28;20096;-82
2024/04/07 10:35:10;;;;;;;0.45;0.40;;;19.10;71.50;;;;;;5093873;28;20036;-81
2024/04/07 10:37:41;;;;;;;1.27;0.55;;;19.20;71.30;;;;;;5102138;28;20075;-81
2024/04/07 10:40:09;;;;;;;;;;;19.20;71.20;;;;;;5113165;28;20058;-81
2024/04/07 10:42:36;;;;;;;1.08;0.40;;;19.20;71.10;;;;;;5102104;28;19991;-81
2024/04/07 10:45:05;;;;;;;1.00;0.50;;;19.30;71.20;;;;;;5113759;28;20103;-82
2024/04/07 10:47:32;;;;;;;0.52;0.30;;;19.30;71.20;;;;;;5129722;28;20088;-80
2024/04/07 10:49:58;;;;;;;0.90;0.40;;;19.30;71.10;;;;;;5089532;28;20044;-81
2024/04/07 10:52:26;;;;;;;0.95;0.47;;;19.30;70.90;;;;;;5090929;28;20044;-79
2024/04/07 10:54:54;;;;;;;1.38;0.60;;;19.40;70.70;;;;;;5088866;28;20127;-81
2024/04/07 10:57:20;;;;;;;0.80;0.40;;;19.40;70.40;;;;;;5110249;28;20048;-82
2024/04/07 10:59:45;;;;;;;1.10;0.50;;;19.50;70.30;;;;;;5101194;28;20060;-82
2024/04/07 11:02:14;;;;;;;0.40;0.40;;;19.50;70.30;;;;;;5084805;28;20048;-79
2024/04/07 11:04:47;;;;;;;0.63;0.45;;;19.50;70.10;;;;;;5131377;28;20046;-81
2024/04/07 11:07:13;;;;;;;0.32;0.30;;;19.70;70.00;;;;;;5115428;28;20047;-81
2024/04/07 11:09:40;;;;;;;1.10;0.57;;;19.80;69.70;;;;;;5100918;28;20401;-82
2024/04/07 11:12:06;;;;;;;0.95;0.55;;;19.80;69.50;;;;;;5128466;28;20044;-80
2024/04/07 11:14:32;;;;;;;0.57;0.40;;;19.90;69.40;;;;;;5067415;28;20064;-81
2024/04/07 11:17:04;;;;;;;1.85;0.40;;;19.90;69.20;;;;;;5086261;28;20083;-81
2024/04/07 11:19:32;;;;;;;0.30;0.30;;;20.00;69.00;;;;;;5088789;28;20037;-82
2024/04/07 11:21:58;;;;;;;0.38;0.38;;;20.00;68.80;;;;;;5069000;28;20048;-82
2024/04/07 11:24:23;;;;;;;0.32;0.32;;;20.10;68.70;;;;;;5074163;28;20059;-83
2024/04/07 11:26:50;;;;;;;1.50;0.57;;;20.20;68.60;;;;;;5087673;28;20045;-79
2024/04/07 11:29:17;;;;;;;0.52;0.40;;;20.20;68.50;;;;;;5091089;28;20048;-80
2024/04/07 11:31:53;;;;;;;0.50;0.50;;;20.40;68.40;;;;;;5078378;28;20047;-82
2024/04/07 11:34:20;;;;;;;0.30;0.30;;;20.40;68.10;;;;;;5087986;28;20057;-79
2024/04/07 11:36:47;;;;;;;0.35;0.30;;;20.50;68.00;;;;;;5067359;28;20042;-80
2024/04/07 11:39:15;;;;;;;1.35;0.50;;;20.50;67.90;;;;;;5069844;28;20066;-80
2024/04/07 11:41:40;;;;;;;0.68;0.40;;;20.60;67.70;;;;;;5085763;28;20041;-80
2024/04/07 11:44:06;;;;;;;0.98;0.50;;;20.50;67.60;;;;;;5086714;28;20127;-80
2024/04/07 11:46:32;;;;;;;0.90;0.52;;;20.50;67.60;;;;;;5095025;28;20047;-79
2024/04/07 11:48:58;;;;;;;0.40;0.40;;;20.50;67.70;;;;;;5107268;28;20122;-81
2024/04/07 11:51:24;;;;;;;0.50;0.32;;;20.60;67.50;;;;;;5107422;28;20050;-82
2024/04/07 11:53:50;;;;;;;0.80;0.40;;;20.60;67.30;;;;;;5107754;28;20047;-81
2024/04/07 11:56:17;;;;;;;0.43;0.40;;;20.70;67.00;;;;;;5093040;28;20044;-81
2024/04/07 11:58:43;;;;;;;0.47;0.40;;;20.70;66.70;;;;;;5093411;28;20054;-83
2024/04/07 12:01:09;;;;;;;0.80;0.30;;;20.80;66.60;;;;;;5108607;28;20047;-83
2024/04/07 12:03:37;;;;;;;1.10;0.50;;;20.90;66.70;;;;;;5026611;28;20044;-82
2024/04/07 12:06:03;;;;;;;3.55;0.57;;;20.80;66.40;;;;;;5029749;28;20041;-82
2024/04/07 12:08:29;;;;;;;0.82;0.40;;;20.80;66.30;;;;;;5043962;28;20068;-81
2024/04/07 12:10:55;;;;;;;0.43;0.30;;;20.80;66.90;;;;;;5033285;28;20053;-82
2024/04/07 12:13:21;;;;;;;0.98;0.50;;;20.90;66.20;;;;;;5044505;28;20063;-82
2024/04/07 12:15:49;;;;;;;0.63;0.50;;;21.00;65.60;;;;;;5045084;28;20540;-83
2024/04/07 12:18:15;;;;;;;1.05;0.40;;;21.10;65.40;;;;;;5028116;28;20039;-83
2024/04/07 12:20:41;;;;;;;0.45;0.30;;;21.10;65.10;;;;;;5057563;28;20104;-84
2024/04/07 12:23:06;;;;;;;0.40;0.40;;;21.10;64.90;;;;;;5054179;28;20045;-83
2024/04/07 12:25:34;;;;;;;1.10;0.43;;;21.10;65.00;;;;;;5038049;28;20045;-83
2024/04/07 12:28:01;;;;;;;2.47;0.57;;;21.20;65.00;;;;;;5031197;28;20060;-83
2024/04/07 12:30:27;;;;;;;0.65;0.47;;;21.20;64.90;;;;;;5028023;28;20045;-83
2024/04/07 12:32:53;;;;;;;2.10;0.50;;;21.20;64.70;;;;;;5007584;28;20519;-81
2024/04/07 12:35:19;;;;;;;0.68;0.40;;;21.30;64.50;;;;;;5057305;28;20075;-83
2024/04/07 12:37:45;;;;;;;1.35;0.30;;;21.30;64.30;;;;;;5071298;28;20048;-82
2024/04/07 12:40:11;;;;;;;0.40;0.40;;;21.40;64.30;;;;;;5070915;28;20053;-84
2024/04/07 12:42:39;;;;;;;1.95;0.40;;;21.40;64.40;;;;;;5048195;28;20036;-83
2024/04/07 12:45:05;;;;;;;0.85;0.50;;;21.40;64.00;;;;;;5061496;28;20064;-83
2024/04/07 12:47:31;;;;;;;0.85;0.50;;;21.40;63.90;;;;;;5085297;28;20071;-82
2024/04/07 12:49:57;;;;;;;0.40;0.40;;;21.40;64.00;;;;;;5089033;28;20059;-85
2024/04/07 12:52:23;;;;;;;0.65;0.38;;;21.20;64.40;;;;;;5076863;28;20514;-81
2024/04/07 12:54:49;;;;;;;3.42;0.50;;;21.20;64.10;;;;;;5048408;28;20045;-84